createdAt,value
2022-10-30T00:00:49.656Z,8.18
2022-10-30T00:04:54.064Z,7.72
2022-10-30T00:08:57.131Z,7.32
2022-10-30T00:13:00.166Z,7.20
2022-10-30T00:17:03.191Z,7.78
2022-10-30T00:21:09.806Z,7.38
2022-10-30T00:25:13.105Z,6.93
2022-10-30T00:29:16.453Z,7.70
2022-10-30T00:33:19.497Z,8.27
2022-10-30T00:37:25.402Z,7.63
2022-10-30T00:41:28.471Z,6.47
2022-10-30T00:45:31.737Z,6.47
2022-10-30T00:49:38.303Z,7.05
2022-10-30T00:53:44.217Z,7.07
2022-10-30T00:57:48.513Z,7.22
2022-10-30T01:01:52.820Z,6.97
2022-10-30T01:05:59.851Z,6.50
2022-10-30T01:10:04.981Z,6.43
2022-10-30T01:14:11.419Z,6.72
2022-10-30T01:18:33.432Z,6.60
2022-10-30T01:22:51.403Z,7.20
2022-10-30T01:27:05.619Z,6.95
2022-10-30T01:31:22.800Z,7.38
2022-10-30T01:35:33.552Z,7.40
2022-10-30T01:39:40.772Z,7.13
2022-10-30T01:43:49.223Z,7.03
2022-10-30T01:48:11.866Z,7.60
2022-10-30T01:52:33.237Z,8.20
2022-10-30T01:56:41.106Z,7.35
2022-10-30T02:00:48.765Z,7.25
2022-10-30T02:04:52.705Z,7.00
2022-10-30T02:08:57.061Z,6.88
2022-10-30T02:13:00.238Z,6.60
2022-10-30T02:17:07.762Z,7.20
2022-10-30T02:21:12.774Z,7.47
2022-10-30T02:25:16.396Z,6.20
2022-10-30T02:29:20.808Z,7.57
2022-10-30T02:33:24.385Z,6.55
2022-10-30T02:37:29.055Z,6.88
2022-10-30T02:41:32.073Z,6.80
2022-10-30T02:45:35.117Z,6.22
2022-10-30T02:49:38.708Z,6.55
2022-10-30T02:53:43.209Z,7.15
2022-10-30T02:57:47.058Z,6.95
2022-10-30T03:01:50.210Z,6.68
2022-10-30T03:05:53.332Z,6.50
2022-10-30T03:09:57.722Z,6.50
2022-10-30T03:14:00.775Z,6.68
2022-10-30T03:18:03.795Z,6.45
2022-10-30T03:22:06.801Z,7.15
2022-10-30T03:26:11.810Z,6.28
2022-10-30T03:30:35.069Z,7.07
2022-10-30T03:34:39.910Z,6.93
2022-10-30T03:38:44.269Z,5.05
2022-10-30T03:42:52.614Z,5.45
2022-10-30T03:46:55.683Z,5.80
2022-10-30T03:51:03.705Z,5.60
2022-10-30T03:55:08.142Z,5.80
2022-10-30T03:59:15.766Z,5.45
2022-10-30T04:03:26.284Z,5.38
2022-10-30T04:07:30.136Z,5.75
2022-10-30T04:11:33.217Z,5.63
2022-10-30T04:15:38.446Z,6.45
2022-10-30T04:19:41.489Z,5.20
2022-10-30T04:23:46.054Z,6.00
2022-10-30T04:27:49.587Z,5.13
2022-10-30T04:31:55.401Z,4.47
2022-10-30T04:35:59.190Z,5.50
2022-10-30T04:40:02.399Z,6.07
2022-10-30T04:44:12.673Z,5.32
2022-10-30T04:48:19.597Z,5.85
2022-10-30T04:52:23.964Z,5.72
2022-10-30T04:56:27.190Z,5.80
2022-10-30T05:00:32.985Z,6.25
2022-10-30T05:04:47.222Z,6.28
2022-10-30T05:08:50.544Z,6.63
2022-10-30T05:13:07.143Z,5.88
2022-10-30T05:17:10.346Z,6.18
2022-10-30T05:21:15.488Z,6.00
2022-10-30T05:25:18.501Z,5.55
2022-10-30T05:29:21.560Z,6.15
2022-10-30T05:33:24.592Z,6.55
2022-10-30T05:37:29.058Z,6.22
2022-10-30T05:41:32.438Z,6.05
2022-10-30T05:45:35.481Z,6.55
2022-10-30T05:49:39.757Z,5.95
2022-10-30T05:53:52.584Z,6.30
2022-10-30T05:58:02.842Z,6.07
2022-10-30T06:02:07.381Z,5.72
2022-10-30T06:06:11.225Z,5.97
2022-10-30T06:10:16.091Z,5.50
2022-10-30T06:14:32.755Z,5.30
2022-10-30T06:18:35.965Z,5.78
2022-10-30T06:22:55.658Z,5.88
2022-10-30T06:27:02.858Z,4.78
2022-10-30T06:31:06.361Z,5.88
2022-10-30T06:35:10.502Z,5.82
2022-10-30T06:39:13.880Z,5.88
2022-10-30T06:43:47.279Z,5.63
2022-10-30T06:47:58.202Z,5.80
2022-10-30T06:52:02.492Z,5.28
2022-10-30T06:56:06.771Z,6.57
2022-10-30T07:00:40.234Z,6.05
2022-10-30T07:05:09.746Z,6.03
2022-10-30T07:09:13.146Z,6.07
2022-10-30T07:13:16.804Z,6.35
2022-10-30T07:17:26.689Z,5.18
2022-10-30T07:21:34.352Z,4.80
2022-10-30T07:25:41.240Z,4.45
2022-10-30T07:29:52.212Z,4.60
2022-10-30T07:33:59.483Z,3.85
2022-10-30T07:38:21.038Z,3.50
2022-10-30T07:42:31.313Z,3.20
2022-10-30T07:46:49.029Z,3.42
2022-10-30T07:51:22.483Z,3.63
2022-10-30T07:55:25.968Z,3.78
2022-10-30T08:04:15.463Z,3.88
2022-10-30T08:08:20.174Z,3.67
2022-10-30T08:12:29.981Z,4.47
2022-10-30T08:16:33.071Z,4.50
2022-10-30T08:20:36.181Z,4.32
2022-10-30T08:24:40.697Z,5.38
2022-10-30T08:28:43.784Z,6.38
2022-10-30T08:32:48.081Z,5.30
2022-10-30T08:37:19.926Z,5.28
2022-10-30T08:41:24.983Z,5.63
2022-10-30T08:45:31.156Z,6.38
2022-10-30T08:49:43.294Z,6.63
2022-10-30T08:53:49.509Z,7.25
2022-10-30T08:57:54.561Z,7.65
2022-10-30T09:01:58.281Z,7.47
2022-10-30T09:06:20.076Z,7.22
2022-10-30T09:10:49.121Z,8.48
2022-10-30T09:14:53.704Z,8.48
2022-10-30T09:18:56.769Z,9.23
2022-10-30T09:23:00.504Z,8.55
2022-10-30T09:27:04.198Z,8.88
2022-10-30T09:31:13.993Z,8.98
2022-10-30T09:35:17.339Z,8.02
2022-10-30T09:39:20.977Z,8.52
2022-10-30T09:43:39.215Z,9.43
2022-10-30T09:47:53.496Z,9.88
2022-10-30T09:52:09.510Z,10.57
2022-10-30T09:56:25.007Z,9.23
2022-10-30T10:00:34.637Z,9.55
2022-10-30T10:04:49.737Z,9.57
2022-10-30T10:09:18.474Z,9.45
2022-10-30T10:14:00.213Z,10.35
2022-10-30T10:18:06.169Z,10.00
2022-10-30T10:22:21.546Z,11.23
2022-10-30T10:26:45.403Z,11.18
2022-10-30T10:30:56.653Z,10.30
2022-10-30T10:35:20.451Z,10.27
2022-10-30T10:39:41.084Z,11.25
2022-10-30T10:44:00.098Z,10.77
2022-10-30T10:48:38.819Z,10.38
2022-10-30T10:52:48.858Z,11.52
2022-10-30T10:56:53.712Z,10.98
2022-10-30T11:00:58.902Z,11.18
2022-10-30T11:05:07.651Z,12.15
2022-10-30T11:09:17.377Z,11.55
2022-10-30T11:13:21.746Z,12.35
2022-10-30T11:17:27.886Z,13.27
2022-10-30T11:21:35.777Z,13.35
2022-10-30T11:25:38.930Z,12.35
2022-10-30T11:29:50.571Z,12.57
2022-10-30T11:33:53.620Z,12.57
2022-10-30T11:38:20.014Z,12.55
2022-10-30T11:42:23.097Z,13.00
2022-10-30T11:46:27.526Z,13.13
2022-10-30T11:50:32.852Z,13.65
2022-10-30T11:54:40.344Z,12.73
2022-10-30T11:58:47.254Z,13.63
2022-10-30T12:02:53.929Z,15.32
2022-10-30T12:07:10.625Z,13.05
2022-10-30T12:11:13.819Z,13.82
2022-10-30T12:15:22.607Z,13.02
2022-10-30T12:19:27.283Z,13.63
2022-10-30T12:23:30.856Z,13.77
2022-10-30T12:27:39.019Z,13.30
2022-10-30T12:31:47.903Z,13.77
2022-10-30T12:35:57.243Z,14.35
2022-10-30T12:40:02.856Z,14.00
2022-10-30T12:44:14.762Z,14.15
2022-10-30T12:48:27.677Z,13.25
2022-10-30T12:52:37.509Z,13.25
2022-10-30T12:56:45.040Z,14.15
2022-10-30T13:00:55.929Z,13.75
2022-10-30T13:05:03.711Z,14.57
2022-10-30T13:09:16.424Z,13.23
2022-10-30T13:13:23.112Z,12.77
2022-10-30T13:17:26.177Z,13.07
2022-10-30T13:21:40.347Z,12.70
2022-10-30T13:26:00.425Z,10.77
2022-10-30T13:30:07.083Z,12.73
2022-10-30T13:34:27.371Z,13.20
2022-10-30T13:38:41.474Z,11.48
2022-10-30T13:42:58.045Z,12.70
2022-10-30T13:47:13.997Z,11.88
2022-10-30T13:51:35.163Z,11.98
2022-10-30T13:55:41.298Z,10.23
2022-10-30T13:59:58.021Z,10.40
2022-10-30T14:04:07.074Z,9.85
2022-10-30T14:08:19.804Z,11.23
2022-10-30T14:12:45.496Z,11.32
2022-10-30T14:17:09.982Z,10.38
2022-10-30T14:21:52.803Z,10.43
2022-10-30T14:26:21.947Z,9.70
2022-10-30T14:30:29.018Z,8.77
2022-10-30T14:34:44.914Z,9.80
2022-10-30T14:39:03.072Z,8.95
2022-10-30T14:43:12.207Z,10.07
2022-10-30T14:47:48.913Z,9.68
2022-10-30T14:52:06.273Z,9.38
2022-10-30T14:56:20.899Z,10.07
2022-10-30T15:00:45.133Z,10.30
2022-10-30T15:05:05.465Z,10.48
2022-10-30T15:09:25.376Z,10.13
2022-10-30T15:13:28.504Z,9.38
2022-10-30T15:17:35.759Z,10.00
2022-10-30T15:21:44.573Z,8.63
2022-10-30T15:25:51.852Z,9.15
2022-10-30T15:29:57.934Z,8.80
2022-10-30T15:34:00.969Z,9.27
2022-10-30T15:38:06.612Z,9.82
2022-10-30T15:42:11.573Z,8.32
2022-10-30T15:46:16.398Z,8.90
2022-10-30T15:50:21.745Z,10.05
2022-10-30T15:54:26.368Z,10.65
2022-10-30T15:58:32.737Z,10.60
2022-10-30T16:02:36.834Z,9.32
2022-10-30T16:06:39.928Z,10.45
2022-10-30T16:10:45.287Z,10.05
2022-10-30T16:14:51.176Z,9.63
2022-10-30T16:18:55.708Z,9.82
2022-10-30T16:22:59.617Z,10.27
2022-10-30T16:27:04.549Z,9.75
2022-10-30T16:31:15.752Z,9.57
2022-10-30T16:35:20.418Z,9.68
2022-10-30T16:39:24.055Z,10.35
2022-10-30T16:43:29.940Z,9.90
2022-10-30T16:47:38.377Z,10.38
2022-10-30T16:51:42.011Z,9.23
2022-10-30T16:55:45.422Z,9.85
2022-10-30T16:59:52.057Z,11.23
2022-10-30T17:03:58.368Z,10.63
2022-10-30T17:08:04.235Z,10.18
2022-10-30T17:12:16.428Z,11.32
2022-10-30T17:16:25.268Z,10.43
2022-10-30T17:20:31.375Z,10.13
2022-10-30T17:24:36.919Z,10.98
2022-10-30T17:28:40.615Z,10.65
2022-10-30T17:32:45.756Z,10.25
2022-10-30T17:36:50.526Z,10.18
2022-10-30T17:40:53.567Z,9.48
2022-10-30T17:44:56.575Z,8.73
2022-10-30T17:49:00.096Z,9.50
2022-10-30T17:53:04.543Z,9.48
2022-10-30T17:57:07.755Z,9.27
2022-10-30T18:01:22.600Z,8.38
2022-10-30T18:05:35.144Z,7.45
2022-10-30T18:09:40.646Z,7.95
2022-10-30T18:13:44.164Z,8.35
2022-10-30T18:17:47.153Z,7.75
2022-10-30T18:21:51.856Z,8.07
2022-10-30T18:25:56.289Z,8.15
2022-10-30T18:29:59.309Z,8.77
2022-10-30T18:34:02.348Z,7.72
2022-10-30T18:38:06.426Z,7.78
2022-10-30T18:42:10.896Z,7.72
2022-10-30T18:46:14.375Z,7.97
2022-10-30T18:50:18.537Z,8.30
2022-10-30T18:54:21.555Z,7.50
2022-10-30T18:58:25.955Z,8.23
2022-10-30T19:02:29.120Z,8.50
2022-10-30T19:06:34.477Z,8.00
2022-10-30T19:10:41.019Z,8.77
2022-10-30T19:14:45.519Z,8.73
2022-10-30T19:18:49.520Z,8.85
2022-10-30T19:22:52.689Z,7.78
2022-10-30T19:26:55.872Z,8.85
2022-10-30T19:31:00.494Z,8.73
2022-10-30T19:35:05.220Z,8.18
2022-10-30T19:39:13.639Z,8.77
2022-10-30T19:43:16.838Z,8.82
2022-10-30T19:47:21.482Z,8.45
2022-10-30T19:51:24.845Z,7.72
2022-10-30T19:55:29.810Z,8.65
2022-10-30T19:59:32.949Z,8.75
2022-10-30T20:03:37.513Z,9.75
2022-10-30T20:07:40.916Z,8.88
2022-10-30T20:11:44.020Z,9.05
2022-10-30T20:15:47.324Z,8.82
2022-10-30T20:19:51.838Z,8.20
2022-10-30T20:23:55.123Z,9.63
2022-10-30T20:28:04.105Z,8.73
2022-10-30T20:32:10.725Z,9.38
2022-10-30T20:36:15.705Z,9.70
2022-10-30T20:40:19.023Z,9.20
2022-10-30T20:44:22.308Z,8.02
2022-10-30T20:48:25.750Z,8.48
2022-10-30T20:52:30.173Z,8.95
2022-10-30T20:56:33.248Z,9.23
2022-10-30T21:00:37.182Z,7.40
2022-10-30T21:04:40.372Z,8.75
2022-10-30T21:08:45.018Z,8.75
2022-10-30T21:12:48.167Z,8.57
2022-10-30T21:16:51.310Z,8.43
2022-10-30T21:20:54.648Z,8.02
2022-10-30T21:24:59.079Z,7.88
2022-10-30T21:29:02.429Z,8.93
2022-10-30T21:33:05.593Z,7.22
2022-10-30T21:37:08.650Z,7.25
2022-10-30T21:41:15.011Z,8.45
2022-10-30T21:45:18.266Z,7.82
2022-10-30T21:49:21.326Z,7.78
2022-10-30T21:53:24.548Z,6.97
2022-10-30T21:57:29.597Z,7.43
2022-10-30T22:01:34.045Z,8.32
2022-10-30T22:05:37.206Z,8.30
2022-10-30T22:09:40.496Z,8.05
2022-10-30T22:13:44.970Z,7.65
2022-10-30T22:17:47.985Z,8.13
2022-10-30T22:21:51.005Z,7.50
2022-10-30T22:25:57.568Z,6.55
2022-10-30T22:30:02.056Z,7.20
2022-10-30T22:34:05.073Z,7.20
2022-10-30T22:38:08.110Z,6.40
2022-10-30T22:42:11.585Z,6.82
2022-10-30T22:46:17.093Z,6.53
2022-10-30T22:50:20.374Z,6.93
2022-10-30T22:54:23.419Z,6.75
2022-10-30T22:58:29.494Z,7.78
2022-10-30T23:02:34.841Z,7.75
2022-10-30T23:06:37.864Z,7.50
2022-10-30T23:10:40.906Z,6.60
2022-10-30T23:14:43.921Z,7.88
2022-10-30T23:18:49.441Z,7.00
2022-10-30T23:22:52.751Z,6.93
2022-10-30T23:26:55.763Z,7.45
2022-10-30T23:30:58.988Z,8.07
2022-10-30T23:35:03.519Z,7.40
2022-10-30T23:39:08.556Z,7.10
2022-10-30T23:43:11.697Z,7.32
2022-10-30T23:47:14.715Z,7.90
2022-10-30T23:51:19.858Z,7.63
2022-10-30T23:55:22.866Z,7.22
2022-10-30T23:59:26.213Z,7.53
